sensor_id;sensor_type;location;lat;lon;timestamp;temperature;humidity
36374;DHT22;22399;51.346;12.372;2023-02-18T00:01:41;8.80;99.90
36374;DHT22;22399;51.346;12.372;2023-02-18T00:04:09;8.70;99.90
36374;DHT22;22399;51.346;12.372;2023-02-18T00:06:38;8.60;99.90
36374;DHT22;22399;51.346;12.372;2023-02-18T00:09:06;8.60;99.90
36374;DHT22;22399;51.346;12.372;2023-02-18T00:11:36;8.50;99.90
36374;DHT22;22399;51.346;12.372;2023-02-18T00:14:10;8.50;99.90
36374;DHT22;22399;51.346;12.372;2023-02-18T00:16:39;8.50;99.90
36374;DHT22;22399;51.346;12.372;2023-02-18T00:19:11;8.50;99.90
36374;DHT22;22399;51.346;12.372;2023-02-18T00:21:39;8.50;99.90
36374;DHT22;22399;51.346;12.372;2023-02-18T00:24:08;8.40;99.90
36374;DHT22;22399;51.346;12.372;2023-02-18T00:26:37;8.30;99.90
36374;DHT22;22399;51.346;12.372;2023-02-18T00:29:06;8.30;99.90
36374;DHT22;22399;51.346;12.372;2023-02-18T00:31:37;8.20;99.90
36374;DHT22;22399;51.346;12.372;2023-02-18T00:34:06;8.20;99.90
36374;DHT22;22399;51.346;12.372;2023-02-18T00:36:34;8.10;99.90
36374;DHT22;22399;51.346;12.372;2023-02-18T00:39:05;8.10;99.90
36374;DHT22;22399;51.346;12.372;2023-02-18T00:41:34;8.10;99.90
36374;DHT22;22399;51.346;12.372;2023-02-18T00:44:04;8.10;99.90
36374;DHT22;22399;51.346;12.372;2023-02-18T00:46:34;8.10;99.90
36374;DHT22;22399;51.346;12.372;2023-02-18T00:49:03;8.00;99.90
36374;DHT22;22399;51.346;12.372;2023-02-18T00:51:34;7.90;99.90
36374;DHT22;22399;51.346;12.372;2023-02-18T00:54:02;7.90;99.90
36374;DHT22;22399;51.346;12.372;2023-02-18T00:56:31;7.90;99.90
36374;DHT22;22399;51.346;12.372;2023-02-18T00:58:59;7.90;99.90
36374;DHT22;22399;51.346;12.372;2023-02-18T01:01:28;8.00;99.90
36374;DHT22;22399;51.346;12.372;2023-02-18T01:03:57;8.00;99.90
36374;DHT22;22399;51.346;12.372;2023-02-18T01:06:26;8.00;99.90
36374;DHT22;22399;51.346;12.372;2023-02-18T01:08:55;8.00;99.90
36374;DHT22;22399;51.346;12.372;2023-02-18T01:11:23;8.00;99.90
36374;DHT22;22399;51.346;12.372;2023-02-18T01:13:52;8.00;99.90
36374;DHT22;22399;51.346;12.372;2023-02-18T01:16:21;8.00;99.90
36374;DHT22;22399;51.346;12.372;2023-02-18T01:18:50;8.00;99.90
36374;DHT22;22399;51.346;12.372;2023-02-18T01:21:19;8.00;99.90
36374;DHT22;22399;51.346;12.372;2023-02-18T01:23:48;8.10;99.90
36374;DHT22;22399;51.346;12.372;2023-02-18T01:26:16;8.10;99.90
36374;DHT22;22399;51.346;12.372;2023-02-18T01:28:45;8.00;99.90
36374;DHT22;22399;51.346;12.372;2023-02-18T01:31:14;8.10;99.90
36374;DHT22;22399;51.346;12.372;2023-02-18T01:33:43;8.10;99.90
36374;DHT22;22399;51.346;12.372;2023-02-18T01:36:11;8.10;99.90
36374;DHT22;22399;51.346;12.372;2023-02-18T01:38:41;8.10;99.90
36374;DHT22;22399;51.346;12.372;2023-02-18T01:41:10;8.10;99.90
36374;DHT22;22399;51.346;12.372;2023-02-18T01:43:39;8.10;99.90
36374;DHT22;22399;51.346;12.372;2023-02-18T01:46:19;8.10;99.90
36374;DHT22;22399;51.346;12.372;2023-02-18T01:48:52;8.10;99.90
36374;DHT22;22399;51.346;12.372;2023-02-18T01:51:23;8.10;99.90
36374;DHT22;22399;51.346;12.372;2023-02-18T01:53:56;8.20;99.90
36374;DHT22;22399;51.346;12.372;2023-02-18T01:56:30;8.20;99.90
36374;DHT22;22399;51.346;12.372;2023-02-18T01:59:01;8.20;99.90
36374;DHT22;22399;51.346;12.372;2023-02-18T02:01:31;8.20;99.90
36374;DHT22;22399;51.346;12.372;2023-02-18T02:04:00;8.20;99.90
36374;DHT22;22399;51.346;12.372;2023-02-18T02:06:29;8.20;99.90
36374;DHT22;22399;51.346;12.372;2023-02-18T02:09:00;8.20;99.90
36374;DHT22;22399;51.346;12.372;2023-02-18T02:12:03;8.30;99.90
36374;DHT22;22399;51.346;12.372;2023-02-18T02:14:51;8.30;99.90
36374;DHT22;22399;51.346;12.372;2023-02-18T02:17:28;8.30;99.90
36374;DHT22;22399;51.346;12.372;2023-02-18T02:23:33;8.30;99.90
36374;DHT22;22399;51.346;12.372;2023-02-18T02:29:37;8.30;99.90
36374;DHT22;22399;51.346;12.372;2023-02-18T02:32:20;8.30;99.90
36374;DHT22;22399;51.346;12.372;2023-02-18T02:34:57;8.30;99.90
36374;DHT22;22399;51.346;12.372;2023-02-18T02:37:35;8.30;99.90
36374;DHT22;22399;51.346;12.372;2023-02-18T02:40:18;8.40;99.90
36374;DHT22;22399;51.346;12.372;2023-02-18T02:42:59;8.40;99.90
36374;DHT22;22399;51.346;12.372;2023-02-18T02:45:37;8.40;99.90
36374;DHT22;22399;51.346;12.372;2023-02-18T02:48:15;8.50;99.90
36374;DHT22;22399;51.346;12.372;2023-02-18T02:50:51;8.50;99.90
36374;DHT22;22399;51.346;12.372;2023-02-18T02:53:24;8.60;99.90
36374;DHT22;22399;51.346;12.372;2023-02-18T02:55:53;8.60;99.90
36374;DHT22;22399;51.346;12.372;2023-02-18T02:58:23;8.70;99.90
36374;DHT22;22399;51.346;12.372;2023-02-18T03:01:25;8.70;99.90
36374;DHT22;22399;51.346;12.372;2023-02-18T03:04:30;8.70;99.90
36374;DHT22;22399;51.346;12.372;2023-02-18T03:07:14;8.70;99.90
36374;DHT22;22399;51.346;12.372;2023-02-18T03:10:04;8.70;99.90
36374;DHT22;22399;51.346;12.372;2023-02-18T03:12:43;8.70;99.90
36374;DHT22;22399;51.346;12.372;2023-02-18T03:15:20;8.70;99.90
36374;DHT22;22399;51.346;12.372;2023-02-18T03:17:51;8.70;99.90
36374;DHT22;22399;51.346;12.372;2023-02-18T03:20:25;8.70;99.90
36374;DHT22;22399;51.346;12.372;2023-02-18T03:22:59;8.70;99.90
36374;DHT22;22399;51.346;12.372;2023-02-18T03:25:31;8.80;99.90
36374;DHT22;22399;51.346;12.372;2023-02-18T03:28:04;8.80;99.90
36374;DHT22;22399;51.346;12.372;2023-02-18T03:30:37;8.80;99.90
36374;DHT22;22399;51.346;12.372;2023-02-18T03:33:12;8.80;99.90
36374;DHT22;22399;51.346;12.372;2023-02-18T03:35:43;8.80;99.90
36374;DHT22;22399;51.346;12.372;2023-02-18T03:38:15;8.80;99.90
36374;DHT22;22399;51.346;12.372;2023-02-18T03:40:45;8.70;99.90
36374;DHT22;22399;51.346;12.372;2023-02-18T03:43:14;8.80;99.90
36374;DHT22;22399;51.346;12.372;2023-02-18T03:45:42;8.70;99.90
36374;DHT22;22399;51.346;12.372;2023-02-18T03:48:11;8.70;99.90
36374;DHT22;22399;51.346;12.372;2023-02-18T03:53:34;8.70;99.90
36374;DHT22;22399;51.346;12.372;2023-02-18T03:56:03;8.70;99.90
36374;DHT22;22399;51.346;12.372;2023-02-18T03:58:31;8.70;99.90
36374;DHT22;22399;51.346;12.372;2023-02-18T04:01:00;8.60;99.90
36374;DHT22;22399;51.346;12.372;2023-02-18T04:03:28;8.60;99.90
36374;DHT22;22399;51.346;12.372;2023-02-18T04:05:56;8.70;99.90
36374;DHT22;22399;51.346;12.372;2023-02-18T04:08:25;8.60;99.90
36374;DHT22;22399;51.346;12.372;2023-02-18T04:10:55;8.60;99.90
36374;DHT22;22399;51.346;12.372;2023-02-18T04:13:23;8.60;99.90
36374;DHT22;22399;51.346;12.372;2023-02-18T04:15:51;8.60;99.90
36374;DHT22;22399;51.346;12.372;2023-02-18T04:18:20;8.60;99.90
36374;DHT22;22399;51.346;12.372;2023-02-18T04:20:48;8.50;99.90
36374;DHT22;22399;51.346;12.372;2023-02-18T04:23:16;8.50;99.90
36374;DHT22;22399;51.346;12.372;2023-02-18T04:25:45;8.50;99.90
36374;DHT22;22399;51.346;12.372;2023-02-18T04:28:15;8.50;99.90
36374;DHT22;22399;51.346;12.372;2023-02-18T04:30:45;8.50;99.90
36374;DHT22;22399;51.346;12.372;2023-02-18T04:33:15;8.50;99.90
36374;DHT22;22399;51.346;12.372;2023-02-18T04:35:43;8.50;99.90
36374;DHT22;22399;51.346;12.372;2023-02-18T04:38:12;8.50;99.90
36374;DHT22;22399;51.346;12.372;2023-02-18T04:40:40;8.50;99.90
36374;DHT22;22399;51.346;12.372;2023-02-18T04:43:09;8.50;99.90
36374;DHT22;22399;51.346;12.372;2023-02-18T04:45:39;8.50;99.90
36374;DHT22;22399;51.346;12.372;2023-02-18T04:48:07;8.50;99.90
36374;DHT22;22399;51.346;12.372;2023-02-18T04:50:36;8.50;99.90
36374;DHT22;22399;51.346;12.372;2023-02-18T04:53:04;8.40;99.90
36374;DHT22;22399;51.346;12.372;2023-02-18T04:55:33;8.30;99.90
36374;DHT22;22399;51.346;12.372;2023-02-18T04:58:01;8.30;99.90
36374;DHT22;22399;51.346;12.372;2023-02-18T05:00:29;8.30;99.90
36374;DHT22;22399;51.346;12.372;2023-02-18T05:02:59;8.20;99.90
36374;DHT22;22399;51.346;12.372;2023-02-18T05:05:27;8.20;99.90
36374;DHT22;22399;51.346;12.372;2023-02-18T05:07:56;8.20;99.90
36374;DHT22;22399;51.346;12.372;2023-02-18T05:10:24;8.20;99.90
36374;DHT22;22399;51.346;12.372;2023-02-18T05:12:53;8.30;99.90
36374;DHT22;22399;51.346;12.372;2023-02-18T05:15:21;8.30;99.90
36374;DHT22;22399;51.346;12.372;2023-02-18T05:17:49;8.30;99.90
36374;DHT22;22399;51.346;12.372;2023-02-18T05:20:19;8.30;99.90
36374;DHT22;22399;51.346;12.372;2023-02-18T05:22:47;8.40;99.90
36374;DHT22;22399;51.346;12.372;2023-02-18T05:25:16;8.40;99.90
36374;DHT22;22399;51.346;12.372;2023-02-18T05:27:45;8.40;99.90
36374;DHT22;22399;51.346;12.372;2023-02-18T05:30:13;8.40;99.90
36374;DHT22;22399;51.346;12.372;2023-02-18T05:32:42;8.50;99.90
36374;DHT22;22399;51.346;12.372;2023-02-18T05:35:10;8.50;99.90
36374;DHT22;22399;51.346;12.372;2023-02-18T05:37:41;8.50;99.90
36374;DHT22;22399;51.346;12.372;2023-02-18T05:40:10;8.50;99.90
36374;DHT22;22399;51.346;12.372;2023-02-18T05:42:38;8.50;99.90
36374;DHT22;22399;51.346;12.372;2023-02-18T05:45:08;8.50;99.90
36374;DHT22;22399;51.346;12.372;2023-02-18T05:47:36;8.40;99.90
36374;DHT22;22399;51.346;12.372;2023-02-18T05:50:06;8.50;99.90
36374;DHT22;22399;51.346;12.372;2023-02-18T05:52:34;8.50;99.90
36374;DHT22;22399;51.346;12.372;2023-02-18T05:55:05;8.50;99.90
36374;DHT22;22399;51.346;12.372;2023-02-18T05:57:33;8.60;99.90
36374;DHT22;22399;51.346;12.372;2023-02-18T06:00:02;8.60;99.90
36374;DHT22;22399;51.346;12.372;2023-02-18T06:02:30;8.70;99.90
36374;DHT22;22399;51.346;12.372;2023-02-18T06:04:59;8.70;99.90
36374;DHT22;22399;51.346;12.372;2023-02-18T06:07:27;8.70;99.90
36374;DHT22;22399;51.346;12.372;2023-02-18T06:09:56;8.80;99.90
36374;DHT22;22399;51.346;12.372;2023-02-18T06:12:26;8.80;99.90
36374;DHT22;22399;51.346;12.372;2023-02-18T06:14:54;8.70;99.90
36374;DHT22;22399;51.346;12.372;2023-02-18T06:17:22;8.70;99.90
36374;DHT22;22399;51.346;12.372;2023-02-18T06:19:51;8.60;99.90
36374;DHT22;22399;51.346;12.372;2023-02-18T06:22:20;8.60;99.90
36374;DHT22;22399;51.346;12.372;2023-02-18T06:24:48;8.50;99.90
36374;DHT22;22399;51.346;12.372;2023-02-18T06:27:16;8.50;99.90
36374;DHT22;22399;51.346;12.372;2023-02-18T06:29:46;8.50;99.90
36374;DHT22;22399;51.346;12.372;2023-02-18T06:32:14;8.50;99.90
36374;DHT22;22399;51.346;12.372;2023-02-18T06:34:43;8.40;99.90
36374;DHT22;22399;51.346;12.372;2023-02-18T06:37:11;8.40;99.90
36374;DHT22;22399;51.346;12.372;2023-02-18T06:39:40;8.40;99.90
36374;DHT22;22399;51.346;12.372;2023-02-18T06:42:08;8.40;99.90
36374;DHT22;22399;51.346;12.372;2023-02-18T06:44:36;8.40;99.90
36374;DHT22;22399;51.346;12.372;2023-02-18T06:47:06;8.40;99.90
36374;DHT22;22399;51.346;12.372;2023-02-18T06:49:35;8.40;99.90
36374;DHT22;22399;51.346;12.372;2023-02-18T06:52:05;8.40;99.90
36374;DHT22;22399;51.346;12.372;2023-02-18T06:54:33;8.40;99.90
36374;DHT22;22399;51.346;12.372;2023-02-18T06:57:02;8.40;99.90
36374;DHT22;22399;51.346;12.372;2023-02-18T06:59:30;8.50;99.90
36374;DHT22;22399;51.346;12.372;2023-02-18T07:01:58;8.50;99.90
36374;DHT22;22399;51.346;12.372;2023-02-18T07:04:28;8.50;99.90
36374;DHT22;22399;51.346;12.372;2023-02-18T07:06:56;8.50;99.90
36374;DHT22;22399;51.346;12.372;2023-02-18T07:09:25;8.50;99.90
36374;DHT22;22399;51.346;12.372;2023-02-18T07:11:53;8.60;99.90
36374;DHT22;22399;51.346;12.372;2023-02-18T07:14:21;8.60;99.90
36374;DHT22;22399;51.346;12.372;2023-02-18T07:16:51;8.60;99.90
36374;DHT22;22399;51.346;12.372;2023-02-18T07:19:19;8.60;99.90
36374;DHT22;22399;51.346;12.372;2023-02-18T07:21:49;8.60;99.90
36374;DHT22;22399;51.346;12.372;2023-02-18T07:24:17;8.60;99.90
36374;DHT22;22399;51.346;12.372;2023-02-18T07:26:45;8.60;99.90
36374;DHT22;22399;51.346;12.372;2023-02-18T07:29:14;8.60;99.90
36374;DHT22;22399;51.346;12.372;2023-02-18T07:31:42;8.70;99.90
36374;DHT22;22399;51.346;12.372;2023-02-18T07:34:11;8.70;99.90
36374;DHT22;22399;51.346;12.372;2023-02-18T07:36:39;8.70;99.90
36374;DHT22;22399;51.346;12.372;2023-02-18T07:39:10;8.70;99.90
36374;DHT22;22399;51.346;12.372;2023-02-18T07:41:38;8.70;99.90
36374;DHT22;22399;51.346;12.372;2023-02-18T07:44:14;8.70;99.90
36374;DHT22;22399;51.346;12.372;2023-02-18T07:46:42;8.70;99.90
36374;DHT22;22399;51.346;12.372;2023-02-18T07:49:14;8.80;99.90
36374;DHT22;22399;51.346;12.372;2023-02-18T07:51:43;8.80;99.90
36374;DHT22;22399;51.346;12.372;2023-02-18T07:54:16;8.90;99.90
36374;DHT22;22399;51.346;12.372;2023-02-18T07:56:44;8.90;99.90
36374;DHT22;22399;51.346;12.372;2023-02-18T07:59:13;9.00;99.90
36374;DHT22;22399;51.346;12.372;2023-02-18T08:01:42;9.00;99.90
36374;DHT22;22399;51.346;12.372;2023-02-18T08:04:11;9.00;99.90
36374;DHT22;22399;51.346;12.372;2023-02-18T08:06:43;9.10;99.90
36374;DHT22;22399;51.346;12.372;2023-02-18T08:09:13;9.10;99.90
36374;DHT22;22399;51.346;12.372;2023-02-18T08:11:43;9.20;99.90
36374;DHT22;22399;51.346;12.372;2023-02-18T08:14:11;9.20;99.90
36374;DHT22;22399;51.346;12.372;2023-02-18T08:16:40;9.30;99.90
36374;DHT22;22399;51.346;12.372;2023-02-18T08:19:08;9.40;99.90
36374;DHT22;22399;51.346;12.372;2023-02-18T08:21:36;9.50;99.90
36374;DHT22;22399;51.346;12.372;2023-02-18T08:24:05;9.60;99.90
36374;DHT22;22399;51.346;12.372;2023-02-18T08:26:34;9.60;99.90
36374;DHT22;22399;51.346;12.372;2023-02-18T08:29:04;9.70;99.90
36374;DHT22;22399;51.346;12.372;2023-02-18T08:31:32;9.80;99.90
36374;DHT22;22399;51.346;12.372;2023-02-18T08:34:01;9.90;99.90
36374;DHT22;22399;51.346;12.372;2023-02-18T08:36:30;10.00;99.90
36374;DHT22;22399;51.346;12.372;2023-02-18T08:38:59;10.00;99.90
36374;DHT22;22399;51.346;12.372;2023-02-18T08:41:27;10.10;99.90
36374;DHT22;22399;51.346;12.372;2023-02-18T08:43:55;10.10;99.90
36374;DHT22;22399;51.346;12.372;2023-02-18T08:46:25;10.10;99.90
36374;DHT22;22399;51.346;12.372;2023-02-18T08:49:02;10.10;99.90
36374;DHT22;22399;51.346;12.372;2023-02-18T08:51:31;10.10;99.90
36374;DHT22;22399;51.346;12.372;2023-02-18T08:53:59;10.10;99.90
36374;DHT22;22399;51.346;12.372;2023-02-18T08:56:28;10.10;99.90
36374;DHT22;22399;51.346;12.372;2023-02-18T08:58:57;10.10;99.90
36374;DHT22;22399;51.346;12.372;2023-02-18T09:01:27;10.20;99.90
36374;DHT22;22399;51.346;12.372;2023-02-18T09:03:56;10.20;99.90
36374;DHT22;22399;51.346;12.372;2023-02-18T09:06:24;10.30;99.90
36374;DHT22;22399;51.346;12.372;2023-02-18T09:08:52;10.30;99.90
36374;DHT22;22399;51.346;12.372;2023-02-18T09:11:21;10.30;99.90
36374;DHT22;22399;51.346;12.372;2023-02-18T09:13:49;10.20;99.90
36374;DHT22;22399;51.346;12.372;2023-02-18T09:16:18;10.20;99.90
36374;DHT22;22399;51.346;12.372;2023-02-18T09:18:48;10.10;99.90
36374;DHT22;22399;51.346;12.372;2023-02-18T09:21:16;10.10;99.90
36374;DHT22;22399;51.346;12.372;2023-02-18T09:23:46;10.10;99.90
36374;DHT22;22399;51.346;12.372;2023-02-18T09:26:16;10.10;99.90
36374;DHT22;22399;51.346;12.372;2023-02-18T09:28:47;10.20;99.90
36374;DHT22;22399;51.346;12.372;2023-02-18T09:31:17;10.10;99.90
36374;DHT22;22399;51.346;12.372;2023-02-18T09:33:49;10.20;99.90
36374;DHT22;22399;51.346;12.372;2023-02-18T09:36:18;10.30;99.90
36374;DHT22;22399;51.346;12.372;2023-02-18T09:38:47;10.30;99.90
36374;DHT22;22399;51.346;12.372;2023-02-18T09:41:26;10.40;99.90
36374;DHT22;22399;51.346;12.372;2023-02-18T09:43:59;10.40;99.90
36374;DHT22;22399;51.346;12.372;2023-02-18T09:46:32;10.50;99.90
36374;DHT22;22399;51.346;12.372;2023-02-18T09:49:07;10.60;99.90
36374;DHT22;22399;51.346;12.372;2023-02-18T09:51:45;10.70;99.90
36374;DHT22;22399;51.346;12.372;2023-02-18T09:54:18;10.80;99.90
36374;DHT22;22399;51.346;12.372;2023-02-18T09:56:48;10.90;99.90
36374;DHT22;22399;51.346;12.372;2023-02-18T09:59:19;11.10;99.90
36374;DHT22;22399;51.346;12.372;2023-02-18T10:01:49;11.20;99.90
36374;DHT22;22399;51.346;12.372;2023-02-18T10:04:22;11.30;99.90
36374;DHT22;22399;51.346;12.372;2023-02-18T10:06:53;11.30;99.90
36374;DHT22;22399;51.346;12.372;2023-02-18T10:09:24;11.50;99.90
36374;DHT22;22399;51.346;12.372;2023-02-18T10:11:56;11.60;99.90
36374;DHT22;22399;51.346;12.372;2023-02-18T10:14:25;11.60;99.90
36374;DHT22;22399;51.346;12.372;2023-02-18T10:16:53;11.70;99.90
36374;DHT22;22399;51.346;12.372;2023-02-18T10:19:28;11.70;99.90
36374;DHT22;22399;51.346;12.372;2023-02-18T10:21:58;11.90;99.90
36374;DHT22;22399;51.346;12.372;2023-02-18T10:24:30;12.10;99.90
36374;DHT22;22399;51.346;12.372;2023-02-18T10:27:00;12.20;99.90
36374;DHT22;22399;51.346;12.372;2023-02-18T10:29:31;12.40;99.90
36374;DHT22;22399;51.346;12.372;2023-02-18T10:32:05;12.60;99.90
36374;DHT22;22399;51.346;12.372;2023-02-18T10:34:46;12.60;99.90
36374;DHT22;22399;51.346;12.372;2023-02-18T10:37:38;12.50;99.90
36374;DHT22;22399;51.346;12.372;2023-02-18T10:40:15;12.50;99.90
36374;DHT22;22399;51.346;12.372;2023-02-18T10:42:49;12.40;99.90
36374;DHT22;22399;51.346;12.372;2023-02-18T10:45:29;12.40;99.90
36374;DHT22;22399;51.346;12.372;2023-02-18T10:48:10;12.40;99.90
36374;DHT22;22399;51.346;12.372;2023-02-18T10:50:44;12.30;99.90
36374;DHT22;22399;51.346;12.372;2023-02-18T10:53:15;12.40;99.90
36374;DHT22;22399;51.346;12.372;2023-02-18T10:55:46;12.40;99.90
36374;DHT22;22399;51.346;12.372;2023-02-18T10:58:29;12.40;99.90
36374;DHT22;22399;51.346;12.372;2023-02-18T11:00:59;12.40;99.90
36374;DHT22;22399;51.346;12.372;2023-02-18T11:03:42;12.30;99.90
36374;DHT22;22399;51.346;12.372;2023-02-18T11:06:23;12.30;99.90
36374;DHT22;22399;51.346;12.372;2023-02-18T11:08:53;12.30;99.90
36374;DHT22;22399;51.346;12.372;2023-02-18T11:11:25;12.30;99.90
36374;DHT22;22399;51.346;12.372;2023-02-18T11:13:56;12.30;99.90
36374;DHT22;22399;51.346;12.372;2023-02-18T11:16:36;12.30;99.90
36374;DHT22;22399;51.346;12.372;2023-02-18T11:19:34;12.30;99.90
36374;DHT22;22399;51.346;12.372;2023-02-18T11:22:13;12.30;99.90
36374;DHT22;22399;51.346;12.372;2023-02-18T11:24:43;12.30;99.90
36374;DHT22;22399;51.346;12.372;2023-02-18T11:27:21;12.20;99.90
36374;DHT22;22399;51.346;12.372;2023-02-18T11:29:53;12.30;99.90
36374;DHT22;22399;51.346;12.372;2023-02-18T11:32:26;12.30;99.90
36374;DHT22;22399;51.346;12.372;2023-02-18T11:34:54;12.30;99.90
36374;DHT22;22399;51.346;12.372;2023-02-18T11:37:25;12.30;99.90
36374;DHT22;22399;51.346;12.372;2023-02-18T11:39:54;12.30;99.90
36374;DHT22;22399;51.346;12.372;2023-02-18T11:42:25;12.20;99.90
36374;DHT22;22399;51.346;12.372;2023-02-18T11:44:56;12.20;99.90
36374;DHT22;22399;51.346;12.372;2023-02-18T11:47:27;12.20;99.90
36374;DHT22;22399;51.346;12.372;2023-02-18T11:50:15;12.10;99.90
36374;DHT22;22399;51.346;12.372;2023-02-18T11:52:47;12.10;99.90
36374;DHT22;22399;51.346;12.372;2023-02-18T11:55:18;12.10;99.90
36374;DHT22;22399;51.346;12.372;2023-02-18T11:57:51;11.90;99.90
36374;DHT22;22399;51.346;12.372;2023-02-18T12:00:29;11.80;99.90
36374;DHT22;22399;51.346;12.372;2023-02-18T12:03:03;11.70;99.90
36374;DHT22;22399;51.346;12.372;2023-02-18T12:05:36;11.60;99.90
36374;DHT22;22399;51.346;12.372;2023-02-18T12:08:12;11.60;99.90
36374;DHT22;22399;51.346;12.372;2023-02-18T12:10:48;11.70;99.90
36374;DHT22;22399;51.346;12.372;2023-02-18T12:13:22;11.80;99.90
36374;DHT22;22399;51.346;12.372;2023-02-18T12:16:00;11.90;99.90
36374;DHT22;22399;51.346;12.372;2023-02-18T12:19:04;12.00;99.90
36374;DHT22;22399;51.346;12.372;2023-02-18T12:21:44;12.20;99.90
36374;DHT22;22399;51.346;12.372;2023-02-18T12:24:30;12.30;99.90
36374;DHT22;22399;51.346;12.372;2023-02-18T12:27:07;12.40;99.90
36374;DHT22;22399;51.346;12.372;2023-02-18T12:29:56;12.40;99.90
36374;DHT22;22399;51.346;12.372;2023-02-18T12:32:38;12.40;99.90
36374;DHT22;22399;51.346;12.372;2023-02-18T12:35:25;12.40;99.90
36374;DHT22;22399;51.346;12.372;2023-02-18T12:38:05;12.50;99.90
36374;DHT22;22399;51.346;12.372;2023-02-18T12:41:09;12.50;99.90
36374;DHT22;22399;51.346;12.372;2023-02-18T12:43:50;12.50;99.90
36374;DHT22;22399;51.346;12.372;2023-02-18T12:46:26;12.40;99.90
36374;DHT22;22399;51.346;12.372;2023-02-18T12:49:09;12.40;99.90
36374;DHT22;22399;51.346;12.372;2023-02-18T12:51:50;12.40;99.90
36374;DHT22;22399;51.346;12.372;2023-02-18T12:54:38;12.20;99.90
36374;DHT22;22399;51.346;12.372;2023-02-18T12:57:25;12.00;99.90
36374;DHT22;22399;51.346;12.372;2023-02-18T13:00:27;12.10;99.90
36374;DHT22;22399;51.346;12.372;2023-02-18T13:06:22;12.30;99.90
36374;DHT22;22399;51.346;12.372;2023-02-18T13:09:04;12.40;99.90
36374;DHT22;22399;51.346;12.372;2023-02-18T13:11:44;12.40;99.90
36374;DHT22;22399;51.346;12.372;2023-02-18T13:14:19;12.40;99.90
36374;DHT22;22399;51.346;12.372;2023-02-18T13:16:52;12.40;99.90
36374;DHT22;22399;51.346;12.372;2023-02-18T13:19:25;12.30;99.90
36374;DHT22;22399;51.346;12.372;2023-02-18T13:21:58;12.30;99.90
36374;DHT22;22399;51.346;12.372;2023-02-18T13:24:32;12.30;99.90
36374;DHT22;22399;51.346;12.372;2023-02-18T13:27:07;12.30;99.90
36374;DHT22;22399;51.346;12.372;2023-02-18T13:29:45;12.30;99.90
36374;DHT22;22399;51.346;12.372;2023-02-18T13:32:21;12.30;99.90
36374;DHT22;22399;51.346;12.372;2023-02-18T13:34:55;12.30;99.90
36374;DHT22;22399;51.346;12.372;2023-02-18T13:37:31;12.30;99.90
36374;DHT22;22399;51.346;12.372;2023-02-18T13:40:03;12.30;99.90
36374;DHT22;22399;51.346;12.372;2023-02-18T13:42:36;12.40;99.90
36374;DHT22;22399;51.346;12.372;2023-02-18T13:45:25;12.50;99.90
36374;DHT22;22399;51.346;12.372;2023-02-18T13:47:54;12.50;99.90
36374;DHT22;22399;51.346;12.372;2023-02-18T13:50:27;12.50;99.90
36374;DHT22;22399;51.346;12.372;2023-02-18T13:53:18;12.50;99.90
36374;DHT22;22399;51.346;12.372;2023-02-18T13:55:57;12.60;99.90
36374;DHT22;22399;51.346;12.372;2023-02-18T13:58:35;12.50;99.90
36374;DHT22;22399;51.346;12.372;2023-02-18T14:01:11;12.50;99.90
36374;DHT22;22399;51.346;12.372;2023-02-18T14:03:53;12.50;99.90
36374;DHT22;22399;51.346;12.372;2023-02-18T14:06:24;12.50;99.90
36374;DHT22;22399;51.346;12.372;2023-02-18T14:11:54;12.40;99.90
36374;DHT22;22399;51.346;12.372;2023-02-18T14:14:36;12.30;99.90
36374;DHT22;22399;51.346;12.372;2023-02-18T14:20:29;12.20;99.90
36374;DHT22;22399;51.346;12.372;2023-02-18T14:22:59;12.10;99.90
36374;DHT22;22399;51.346;12.372;2023-02-18T14:25:35;12.10;99.90
36374;DHT22;22399;51.346;12.372;2023-02-18T14:28:40;12.10;99.90
36374;DHT22;22399;51.346;12.372;2023-02-18T14:31:29;12.20;99.90
36374;DHT22;22399;51.346;12.372;2023-02-18T14:34:48;12.20;99.90
36374;DHT22;22399;51.346;12.372;2023-02-18T14:40:32;12.30;99.90
36374;DHT22;22399;51.346;12.372;2023-02-18T14:43:09;12.70;99.90
36374;DHT22;22399;51.346;12.372;2023-02-18T14:45:59;13.00;99.90
36374;DHT22;22399;51.346;12.372;2023-02-18T14:49:04;13.30;99.40
36374;DHT22;22399;51.346;12.372;2023-02-18T14:51:39;13.20;99.30
36374;DHT22;22399;51.346;12.372;2023-02-18T14:54:12;13.30;98.80
36374;DHT22;22399;51.346;12.372;2023-02-18T14:56:50;13.70;98.80
36374;DHT22;22399;51.346;12.372;2023-02-18T14:59:21;13.60;98.10
36374;DHT22;22399;51.346;12.372;2023-02-18T15:01:53;13.40;98.20
36374;DHT22;22399;51.346;12.372;2023-02-18T15:04:23;13.00;99.40
36374;DHT22;22399;51.346;12.372;2023-02-18T15:07:02;12.70;99.50
36374;DHT22;22399;51.346;12.372;2023-02-18T15:09:31;12.40;99.70
36374;DHT22;22399;51.346;12.372;2023-02-18T15:12:01;12.20;99.90
36374;DHT22;22399;51.346;12.372;2023-02-18T15:14:35;12.10;99.90
36374;DHT22;22399;51.346;12.372;2023-02-18T15:17:05;12.00;99.90
36374;DHT22;22399;51.346;12.372;2023-02-18T15:19:37;12.00;99.90
36374;DHT22;22399;51.346;12.372;2023-02-18T15:22:14;11.90;99.90
36374;DHT22;22399;51.346;12.372;2023-02-18T15:24:44;11.80;99.90
36374;DHT22;22399;51.346;12.372;2023-02-18T15:27:15;11.70;99.90
36374;DHT22;22399;51.346;12.372;2023-02-18T15:29:43;11.70;99.90
36374;DHT22;22399;51.346;12.372;2023-02-18T15:32:18;11.60;99.90
36374;DHT22;22399;51.346;12.372;2023-02-18T15:34:49;11.60;99.90
36374;DHT22;22399;51.346;12.372;2023-02-18T15:37:19;11.50;99.90
36374;DHT22;22399;51.346;12.372;2023-02-18T15:39:48;11.50;99.90
36374;DHT22;22399;51.346;12.372;2023-02-18T15:42:24;11.50;99.90
36374;DHT22;22399;51.346;12.372;2023-02-18T15:44:55;11.40;99.90
36374;DHT22;22399;51.346;12.372;2023-02-18T15:47:24;11.30;99.90
36374;DHT22;22399;51.346;12.372;2023-02-18T15:49:55;11.30;99.90
36374;DHT22;22399;51.346;12.372;2023-02-18T15:52:28;11.20;99.90
36374;DHT22;22399;51.346;12.372;2023-02-18T15:55:01;11.20;99.90
36374;DHT22;22399;51.346;12.372;2023-02-18T15:57:31;11.20;99.90
36374;DHT22;22399;51.346;12.372;2023-02-18T16:00:05;11.10;99.90
36374;DHT22;22399;51.346;12.372;2023-02-18T16:02:51;11.10;99.90
36374;DHT22;22399;51.346;12.372;2023-02-18T16:05:24;11.10;99.90
36374;DHT22;22399;51.346;12.372;2023-02-18T16:07:57;11.10;99.90
36374;DHT22;22399;51.346;12.372;2023-02-18T16:10:46;11.10;99.90
36374;DHT22;22399;51.346;12.372;2023-02-18T16:13:16;11.10;99.90
36374;DHT22;22399;51.346;12.372;2023-02-18T16:15:47;11.10;99.90
36374;DHT22;22399;51.346;12.372;2023-02-18T16:18:28;11.10;99.90
36374;DHT22;22399;51.346;12.372;2023-02-18T16:21:00;11.00;99.90
36374;DHT22;22399;51.346;12.372;2023-02-18T16:23:40;11.00;99.90